This is the latest recevied weather packets stored in our database for station/object 9D9-WX. If no packets are shown the sender has not sent any weather packets the latest 1 day(s).
| Time | Temp. | Humidity | Pressure | Rain* | Wind** | Luminosity | Snow |
|---|---|---|---|---|---|---|---|
| 1778099428 | 12.22° C | 34% | 984.7 hPa | 0 mm | - | - | - |
| 1778097633 | 11.67° C | 34% | 984.2 hPa | 0 mm | - | - | - |
| 1778095829 | 11.67° C | 34% | 984.6 hPa | 0 mm | - | - | - |
| 1778094915 | 12.22° C | 34% | 984.6 hPa | 0 mm | - | - | - |
| 1778093114 | 11.67° C | 35% | 984.4 hPa | 0 mm | - | - | - |
| 1778092223 | 12.22° C | 34% | 984.4 hPa | 0 mm | - | - | - |
| 1778090433 | 12.22° C | 34% | 984.4 hPa | 0 mm | - | - | - |
| 1778089512 | 12.22° C | 37% | 984.6 hPa | 0 mm | - | - | - |
| 1778087715 | 11.67° C | 35% | 985.2 hPa | 0 mm | - | - | - |
| 1778086833 | 11.67° C | 36% | 985.3 hPa | 0 mm | - | - | - |
| 1778085915 | 11.67° C | 41% | 984.5 hPa | 0 mm | - | - | - |
| 1778084115 | 10.56° C | 41% | 984.5 hPa | 0 mm | - | - | - |
| 1778077829 | 8.33° C | 54% | 984.4 hPa | 0 mm | - | - | - |
| 1778074229 | 7.22° C | 59% | 983.4 hPa | 0 mm | - | - | - |
| 1778071515 | 6.11° C | 71% | 982.4 hPa | 0 mm | - | - | - |
| 1778069715 | 5° C | 71% | 982.4 hPa | 0 mm | - | - | - |
| 1778067914 | 3.89° C | 75% | 981.8 hPa | 0 mm | - | - | - |
| 1778066112 | 2.78° C | 75% | 981.8 hPa | 0 mm | - | - | - |
| 1778063425 | 2.78° C | 73% | 981.6 hPa | 0 mm | - | - | - |
| 1778061634 | 3.33° C | 73% | 981.6 hPa | 0 mm | - | - | - |
| 1778060712 | 3.33° C | 69% | 980.5 hPa | 0 mm | - | - | - |
| 1778059824 | 3.89° C | 69% | 981 hPa | 0 mm | - | - | - |
| 1778058034 | 3.89° C | 69% | 981 hPa | 0 mm | - | - | - |
| 1778054435 | 4.44° C | 72% | 981 hPa | 0 mm | - | - | - |
| 1778051711 | 5° C | 72% | 980.9 hPa | 0 mm | - | - | - |
* Rain latest hour (hover to see other rain measurements)
** Current wind speed in m/s (hover to see current wind gust speed)